createdAt,value
2023-02-18T00:01:39.506Z,42.16
2023-02-18T00:04:07.691Z,41.97
2023-02-18T00:06:36.704Z,41.56
2023-02-18T00:09:05.438Z,41.88
2023-02-18T00:11:35.754Z,41.85
2023-02-18T00:14:08.508Z,41.54
2023-02-18T00:16:36.076Z,42.11
2023-02-18T00:19:09.529Z,41.23
2023-02-18T00:21:37.562Z,41.23
2023-02-18T00:24:06.832Z,41.57
2023-02-18T00:26:35.261Z,41.89
2023-02-18T00:29:03.752Z,41.27
2023-02-18T00:31:37.357Z,40.81
2023-02-18T00:34:06.232Z,41.02
2023-02-18T00:36:35.386Z,40.86
2023-02-18T00:39:07.795Z,40.28
2023-02-18T00:41:36.174Z,40.36
2023-02-18T00:44:05.407Z,40.48
2023-02-18T00:46:34.822Z,40.74
2023-02-18T00:49:04.838Z,40.51
2023-02-18T00:51:33.423Z,39.68
2023-02-18T00:54:01.402Z,40.03
2023-02-18T00:56:29.153Z,39.79
2023-02-18T00:58:57.198Z,39.51
2023-02-18T01:01:25.083Z,39.45
2023-02-18T01:03:53.028Z,39.64
2023-02-18T01:06:22.335Z,39.99
2023-02-18T01:08:50.643Z,39.37
2023-02-18T01:11:18.528Z,39.43
2023-02-18T01:13:47.770Z,39.87
2023-02-18T01:16:15.726Z,39.53
2023-02-18T01:18:43.750Z,39.40
2023-02-18T01:21:11.869Z,38.92
2023-02-18T01:23:41.739Z,39.41
2023-02-18T01:26:10.893Z,38.89
2023-02-18T01:28:41.802Z,38.81
2023-02-18T01:31:12.780Z,38.84
2023-02-18T01:33:41.832Z,38.90
2023-02-18T01:36:11.213Z,38.57
2023-02-18T01:38:39.899Z,38.62
2023-02-18T01:41:08.198Z,37.91
2023-02-18T01:43:38.113Z,38.17
2023-02-18T01:46:05.965Z,37.83
2023-02-18T01:49:03.476Z,37.51
2023-02-18T01:51:46.614Z,37.59
2023-02-18T01:54:39.911Z,37.29
2023-02-18T01:57:15.472Z,37.46
2023-02-18T02:00:08.622Z,37.43
2023-02-18T02:02:46.098Z,37.51
2023-02-18T02:05:15.095Z,37.21
2023-02-18T02:07:44.820Z,37.35
2023-02-18T02:10:15.735Z,37.13
2023-02-18T02:13:20.478Z,37.23
2023-02-18T02:16:11.106Z,37.08
2023-02-18T02:18:45.261Z,37.82
2023-02-18T02:21:31.833Z,37.57
2023-02-18T02:24:10.965Z,38.01
2023-02-18T02:27:08.611Z,38.15
2023-02-18T02:30:23.668Z,37.49
2023-02-18T02:33:40.390Z,38.16
2023-02-18T02:36:28.601Z,38.37
2023-02-18T02:39:38.002Z,38.15
2023-02-18T02:42:25.459Z,38.54
2023-02-18T02:45:07.042Z,38.48
2023-02-18T02:47:49.454Z,38.16
2023-02-18T02:51:08.008Z,37.73
2023-02-18T02:53:40.205Z,37.93
2023-02-18T02:56:24.952Z,37.18
2023-02-18T02:59:07.874Z,37.63
2023-02-18T03:02:11.055Z,37.40
2023-02-18T03:04:59.529Z,37.11
2023-02-18T03:07:57.893Z,37.35
2023-02-18T03:11:02.880Z,37.22
2023-02-18T03:14:12.834Z,37.62
2023-02-18T03:16:50.287Z,36.68
2023-02-18T03:19:38.274Z,37.05
2023-02-18T03:22:21.911Z,36.92
2023-02-18T03:24:57.002Z,36.92
2023-02-18T03:27:37.319Z,36.85
2023-02-18T03:30:28.868Z,36.49
2023-02-18T03:33:04.101Z,36.19
2023-02-18T03:35:32.774Z,36.71
2023-02-18T03:38:19.209Z,36.38
2023-02-18T03:40:47.753Z,35.97
2023-02-18T03:43:15.819Z,35.87
2023-02-18T03:45:43.759Z,36.15
2023-02-18T03:48:30.428Z,35.39
2023-02-18T03:50:58.422Z,35.40
2023-02-18T03:53:26.034Z,35.56
2023-02-18T03:55:53.838Z,35.58
2023-02-18T03:58:21.400Z,35.31
2023-02-18T04:00:49.277Z,35.50
2023-02-18T04:03:16.923Z,35.43
2023-02-18T04:05:44.853Z,35.49
2023-02-18T04:08:12.389Z,35.44
2023-02-18T04:10:40.217Z,35.25
2023-02-18T04:13:07.682Z,35.24
2023-02-18T04:15:35.723Z,35.12
2023-02-18T04:18:03.584Z,35.22
2023-02-18T04:20:31.991Z,35.13
2023-02-18T04:22:59.506Z,35.36
2023-02-18T04:25:27.617Z,35.40
2023-02-18T04:27:55.155Z,35.23
2023-02-18T04:30:23.139Z,35.09
2023-02-18T04:32:50.927Z,35.36
2023-02-18T04:35:19.108Z,35.04
2023-02-18T04:37:46.659Z,35.89
2023-02-18T04:40:15.156Z,35.43
2023-02-18T04:42:42.642Z,35.26
2023-02-18T04:45:10.597Z,35.75
2023-02-18T04:47:38.190Z,35.42
2023-02-18T04:50:07.072Z,35.63
2023-02-18T04:52:34.682Z,35.92
2023-02-18T04:55:02.522Z,35.87
2023-02-18T04:57:30.008Z,36.14
2023-02-18T04:59:57.833Z,36.12
2023-02-18T05:02:25.615Z,35.65
2023-02-18T05:04:53.488Z,35.55
2023-02-18T05:07:21.097Z,35.55
2023-02-18T05:09:49.021Z,35.68
2023-02-18T05:12:16.617Z,36.06
2023-02-18T05:14:44.544Z,36.91
2023-02-18T05:17:12.098Z,37.51
2023-02-18T05:19:39.926Z,37.75
2023-02-18T05:22:07.513Z,38.31
2023-02-18T05:24:35.313Z,38.93
2023-02-18T05:27:02.814Z,39.13
2023-02-18T05:29:30.633Z,39.55
2023-02-18T05:31:58.137Z,39.64
2023-02-18T05:34:26.266Z,40.05
2023-02-18T05:36:53.700Z,40.01
2023-02-18T05:39:21.516Z,40.80
2023-02-18T05:41:48.999Z,40.63
2023-02-18T05:44:32.568Z,40.68
2023-02-18T05:47:08.771Z,41.63
2023-02-18T05:49:38.609Z,41.65
2023-02-18T05:52:06.880Z,42.37
2023-02-18T05:54:36.076Z,41.70
2023-02-18T05:57:04.071Z,41.57
2023-02-18T05:59:32.399Z,41.48
2023-02-18T06:02:00.841Z,41.39
2023-02-18T06:04:29.088Z,41.69
2023-02-18T06:06:56.928Z,41.79
2023-02-18T06:09:24.995Z,41.85
2023-02-18T06:11:52.548Z,42.05
2023-02-18T06:14:21.099Z,42.00
2023-02-18T06:16:48.742Z,42.09
2023-02-18T06:19:16.692Z,42.58
2023-02-18T06:21:44.484Z,42.59
2023-02-18T06:24:12.365Z,42.91
2023-02-18T06:26:39.906Z,42.77
2023-02-18T06:29:07.860Z,42.62
2023-02-18T06:31:35.585Z,42.64
2023-02-18T06:34:04.049Z,42.93
2023-02-18T06:36:31.876Z,42.96
2023-02-18T06:39:00.025Z,42.98
2023-02-18T06:41:27.550Z,43.13
2023-02-18T06:43:55.479Z,43.51
2023-02-18T06:46:23.283Z,43.22
2023-02-18T06:48:51.547Z,43.12
2023-02-18T06:51:19.648Z,43.12
2023-02-18T06:53:47.596Z,42.97
2023-02-18T06:56:15.167Z,43.06
2023-02-18T06:58:43.229Z,43.23
2023-02-18T07:01:10.852Z,43.20
2023-02-18T07:03:39.004Z,43.04
2023-02-18T07:06:07.392Z,42.78
2023-02-18T07:08:37.677Z,42.59
2023-02-18T07:11:05.429Z,42.60
2023-02-18T07:13:33.293Z,42.96
2023-02-18T07:16:01.024Z,43.22
2023-02-18T07:18:28.900Z,42.89
2023-02-18T07:20:56.552Z,43.00
2023-02-18T07:23:24.447Z,43.46
2023-02-18T07:25:52.004Z,43.37
2023-02-18T07:28:19.883Z,43.68
2023-02-18T07:30:47.644Z,43.24
2023-02-18T07:33:15.648Z,43.71
2023-02-18T07:35:43.418Z,43.71
2023-02-18T07:38:11.283Z,43.29
2023-02-18T07:40:38.821Z,42.86
2023-02-18T07:43:06.630Z,42.29
2023-02-18T07:45:34.222Z,42.82
2023-02-18T07:48:02.008Z,42.42
2023-02-18T07:50:35.117Z,42.73
2023-02-18T07:53:07.253Z,41.92
2023-02-18T07:55:50.065Z,42.56
2023-02-18T07:58:27.781Z,42.75
2023-02-18T08:00:56.288Z,42.18
2023-02-18T08:03:28.394Z,42.54
2023-02-18T08:05:57.791Z,42.44
2023-02-18T08:08:29.362Z,41.84
2023-02-18T08:11:10.046Z,42.14
2023-02-18T08:13:41.912Z,42.15
2023-02-18T08:16:10.649Z,42.23
2023-02-18T08:18:38.753Z,41.69
2023-02-18T08:21:06.411Z,41.67
2023-02-18T08:23:34.556Z,42.03
2023-02-18T08:26:02.089Z,42.67
2023-02-18T08:28:30.347Z,42.48
2023-02-18T08:30:58.855Z,42.48
2023-02-18T08:33:26.850Z,42.17
2023-02-18T08:35:55.867Z,42.14
2023-02-18T08:38:24.847Z,42.59
2023-02-18T08:41:02.230Z,43.20
2023-02-18T08:43:30.251Z,42.85
2023-02-18T08:45:59.217Z,43.58
2023-02-18T08:48:28.940Z,43.32
2023-02-18T08:50:57.016Z,42.57
2023-02-18T08:53:25.054Z,42.49
2023-02-18T08:55:52.868Z,42.98
2023-02-18T08:58:20.848Z,42.56
2023-02-18T09:00:48.343Z,42.90
2023-02-18T09:03:17.101Z,42.87
2023-02-18T09:06:03.767Z,42.59
2023-02-18T09:08:33.763Z,43.24
2023-02-18T09:11:04.909Z,43.45
2023-02-18T09:13:34.280Z,44.10
2023-02-18T09:16:09.585Z,43.47
2023-02-18T09:18:37.901Z,43.73
2023-02-18T09:21:08.453Z,43.92
2023-02-18T09:23:36.728Z,44.43
2023-02-18T09:26:10.661Z,44.10
2023-02-18T09:28:38.628Z,44.20
2023-02-18T09:31:17.140Z,44.22
2023-02-18T09:33:55.485Z,44.43
2023-02-18T09:36:23.600Z,45.16
2023-02-18T09:38:51.612Z,45.03
2023-02-18T09:41:29.678Z,45.50
2023-02-18T09:44:27.527Z,45.06
2023-02-18T09:47:06.728Z,44.35
2023-02-18T09:49:40.330Z,44.47
2023-02-18T09:52:23.820Z,44.49
2023-02-18T09:54:52.409Z,44.63
2023-02-18T09:57:26.932Z,44.27
2023-02-18T10:00:05.242Z,44.09
2023-02-18T10:02:45.507Z,44.23
2023-02-18T10:05:15.948Z,44.11
2023-02-18T10:07:44.940Z,43.79
2023-02-18T10:10:43.458Z,44.22
2023-02-18T10:13:20.995Z,44.66
2023-02-18T10:15:50.416Z,44.42
2023-02-18T10:18:31.741Z,43.99
2023-02-18T10:21:21.111Z,44.38
2023-02-18T10:24:32.576Z,44.34
2023-02-18T10:27:03.906Z,44.11
2023-02-18T10:29:32.401Z,44.21
2023-02-18T10:32:35.314Z,44.46
2023-02-18T10:35:24.866Z,43.92
2023-02-18T10:37:58.040Z,43.42
2023-02-18T10:41:19.388Z,44.09
2023-02-18T10:44:19.051Z,43.47
2023-02-18T10:47:35.819Z,43.16
2023-02-18T10:50:23.680Z,43.44
2023-02-18T10:52:55.280Z,43.27
2023-02-18T10:55:38.146Z,43.50
2023-02-18T10:58:37.717Z,43.11
2023-02-18T11:01:13.472Z,43.73
2023-02-18T11:03:50.031Z,44.12
2023-02-18T11:06:26.613Z,43.44
2023-02-18T11:08:56.797Z,43.06
2023-02-18T11:11:40.122Z,42.55
2023-02-18T11:14:13.766Z,42.52
2023-02-18T11:16:45.947Z,42.41
2023-02-18T11:19:34.155Z,42.48
2023-02-18T11:22:23.585Z,42.64
2023-02-18T11:25:04.426Z,42.69
2023-02-18T11:27:46.335Z,42.88
2023-02-18T11:30:33.265Z,43.56
2023-02-18T11:33:15.196Z,43.72
2023-02-18T11:35:51.963Z,42.69
2023-02-18T11:38:46.360Z,43.11
2023-02-18T11:41:19.042Z,42.83
2023-02-18T11:43:55.974Z,43.22
2023-02-18T11:46:27.575Z,43.16
2023-02-18T11:48:56.083Z,42.62
2023-02-18T11:51:36.724Z,42.95
2023-02-18T11:54:24.777Z,42.65
2023-02-18T11:57:06.986Z,42.91
2023-02-18T11:59:38.547Z,42.45
2023-02-18T12:02:12.209Z,42.53
2023-02-18T12:04:58.949Z,42.93
2023-02-18T12:07:43.358Z,43.21
2023-02-18T12:10:27.854Z,42.92
2023-02-18T12:13:18.213Z,43.01
2023-02-18T12:16:04.428Z,43.86
2023-02-18T12:19:08.953Z,44.32
2023-02-18T12:22:26.805Z,43.99
2023-02-18T12:25:46.474Z,44.27
2023-02-18T12:28:50.648Z,44.20
2023-02-18T12:31:30.621Z,44.15
2023-02-18T12:34:03.834Z,44.12
2023-02-18T12:36:42.588Z,43.91
2023-02-18T12:39:31.635Z,43.47
2023-02-18T12:42:16.903Z,42.61
2023-02-18T12:45:09.079Z,43.33
2023-02-18T12:48:37.457Z,42.75
2023-02-18T12:51:37.068Z,42.86
2023-02-18T12:55:02.197Z,42.63
2023-02-18T12:57:49.243Z,42.27
2023-02-18T13:00:53.028Z,42.12
2023-02-18T13:03:53.062Z,41.97
2023-02-18T13:06:39.645Z,41.20
2023-02-18T13:09:46.757Z,41.42
2023-02-18T13:12:45.900Z,41.16
2023-02-18T13:15:44.263Z,41.50
2023-02-18T13:18:29.096Z,41.22
2023-02-18T13:21:07.809Z,40.93
2023-02-18T13:23:46.261Z,40.04
2023-02-18T13:26:17.853Z,39.14
2023-02-18T13:29:10.020Z,38.62
2023-02-18T13:32:13.544Z,37.84
2023-02-18T13:35:13.613Z,37.91
2023-02-18T13:38:20.282Z,37.93
2023-02-18T13:40:48.471Z,37.82
2023-02-18T13:43:31.338Z,37.83
2023-02-18T13:46:23.523Z,37.51
2023-02-18T13:49:03.355Z,37.02
2023-02-18T13:51:45.403Z,36.82
2023-02-18T13:54:13.274Z,36.59
2023-02-18T13:57:24.097Z,36.53
2023-02-18T13:59:58.234Z,36.75
2023-02-18T14:02:28.832Z,36.20
2023-02-18T14:05:22.552Z,36.40
2023-02-18T14:08:12.338Z,36.34
2023-02-18T14:10:40.484Z,36.46
2023-02-18T14:13:50.700Z,36.89
2023-02-18T14:16:20.174Z,37.16
2023-02-18T14:18:47.638Z,37.10
2023-02-18T14:21:15.325Z,37.31
2023-02-18T14:24:07.357Z,37.17
2023-02-18T14:26:45.711Z,37.10
2023-02-18T14:29:27.395Z,37.00
2023-02-18T14:32:12.144Z,37.07
2023-02-18T14:35:07.166Z,36.96
2023-02-18T14:37:49.855Z,36.26
2023-02-18T14:40:39.520Z,35.97
2023-02-18T14:43:54.863Z,36.20
2023-02-18T14:46:51.369Z,35.88
2023-02-18T14:49:41.343Z,36.33
2023-02-18T14:52:23.808Z,36.66
2023-02-18T14:54:52.254Z,36.65
2023-02-18T14:57:29.023Z,36.82
2023-02-18T15:00:00.751Z,36.50
2023-02-18T15:02:32.790Z,36.37
2023-02-18T15:05:20.689Z,36.51
2023-02-18T15:08:11.278Z,36.63
2023-02-18T15:10:45.171Z,36.82
2023-02-18T15:13:44.356Z,37.06
2023-02-18T15:16:34.343Z,37.27
2023-02-18T15:19:13.602Z,37.41
2023-02-18T15:21:49.657Z,37.33
2023-02-18T15:24:38.259Z,37.22
2023-02-18T15:27:29.526Z,37.16
2023-02-18T15:30:14.401Z,37.44
2023-02-18T15:32:53.207Z,37.63
2023-02-18T15:35:23.853Z,37.68
2023-02-18T15:37:58.480Z,37.81
2023-02-18T15:40:37.947Z,38.21
2023-02-18T15:43:07.736Z,39.04
2023-02-18T15:45:41.801Z,39.36
2023-02-18T15:48:31.963Z,39.21
2023-02-18T15:51:16.453Z,39.25
2023-02-18T15:53:50.676Z,40.24
2023-02-18T15:56:34.193Z,41.15
2023-02-18T15:59:30.636Z,42.07
2023-02-18T16:02:24.210Z,42.01
2023-02-18T16:04:59.070Z,42.14
2023-02-18T16:07:37.119Z,42.22
2023-02-18T16:10:37.179Z,42.82
2023-02-18T16:13:06.168Z,43.35
2023-02-18T16:15:41.161Z,43.51
2023-02-18T16:18:23.171Z,43.53
2023-02-18T16:21:02.311Z,43.91
2023-02-18T16:23:46.949Z,43.85
2023-02-18T16:26:23.322Z,44.25
2023-02-18T16:28:52.922Z,44.16
2023-02-18T16:31:21.959Z,44.27
2023-02-18T16:33:50.332Z,44.60
2023-02-18T16:36:19.302Z,44.69
2023-02-18T16:38:46.849Z,44.28
2023-02-18T16:41:15.492Z,44.58
2023-02-18T16:43:43.367Z,45.00
2023-02-18T16:46:21.843Z,45.21
2023-02-18T16:48:55.856Z,45.36
2023-02-18T16:51:33.446Z,45.66
2023-02-18T16:54:01.514Z,45.84
2023-02-18T16:56:33.795Z,45.98
2023-02-18T16:59:01.231Z,46.55
2023-02-18T17:01:31.424Z,47.19
2023-02-18T17:04:00.565Z,47.24
2023-02-18T17:06:29.359Z,46.76
2023-02-18T17:08:57.220Z,46.54
2023-02-18T17:11:32.250Z,46.52
2023-02-18T17:14:00.667Z,46.46
2023-02-18T17:16:28.633Z,46.07
2023-02-18T17:18:56.245Z,45.93
2023-02-18T17:21:25.571Z,45.79
2023-02-18T17:23:53.139Z,45.74
2023-02-18T17:26:27.908Z,45.98
2023-02-18T17:28:57.770Z,45.94
2023-02-18T17:31:35.262Z,45.89
2023-02-18T17:34:08.382Z,45.49
2023-02-18T17:36:36.482Z,45.48
2023-02-18T17:39:12.599Z,45.23
2023-02-18T17:41:40.525Z,45.54
2023-02-18T17:44:20.368Z,45.61
2023-02-18T17:46:52.556Z,45.54
2023-02-18T17:49:22.382Z,45.26
2023-02-18T17:51:50.246Z,45.18
2023-02-18T17:54:20.371Z,45.21
2023-02-18T17:56:48.183Z,45.09
2023-02-18T17:59:15.989Z,44.88
2023-02-18T18:01:44.792Z,44.82
2023-02-18T18:04:18.767Z,44.91
2023-02-18T18:06:48.134Z,44.86
2023-02-18T18:09:15.656Z,44.75
2023-02-18T18:11:43.686Z,45.16
2023-02-18T18:14:14.982Z,45.10
2023-02-18T18:16:43.625Z,44.67
2023-02-18T18:19:11.222Z,44.65
2023-02-18T18:21:39.152Z,44.17
2023-02-18T18:24:07.090Z,44.19
2023-02-18T18:26:34.956Z,44.65
2023-02-18T18:29:02.468Z,44.27
2023-02-18T18:31:31.231Z,44.50
2023-02-18T18:34:01.102Z,44.80
2023-02-18T18:36:28.913Z,44.78
2023-02-18T18:38:56.346Z,44.39
2023-02-18T18:41:24.145Z,44.99
2023-02-18T18:43:51.656Z,44.18
2023-02-18T18:46:19.615Z,43.95
2023-02-18T18:48:47.121Z,43.96
2023-02-18T18:51:18.276Z,44.32
2023-02-18T18:53:45.856Z,44.55
2023-02-18T18:56:16.734Z,44.65
2023-02-18T18:58:44.340Z,44.53
2023-02-18T19:01:19.182Z,44.39
2023-02-18T19:03:47.652Z,44.32
2023-02-18T19:06:17.295Z,44.72
2023-02-18T19:08:46.819Z,44.84
2023-02-18T19:11:16.322Z,44.89
2023-02-18T19:13:46.004Z,44.55
2023-02-18T19:17:04.441Z,44.91
2023-02-18T19:19:34.513Z,44.54
2023-02-18T19:22:02.461Z,44.71
2023-02-18T19:24:31.584Z,44.87
2023-02-18T19:27:00.530Z,44.99
2023-02-18T19:29:28.480Z,45.18
2023-02-18T19:31:57.510Z,45.09
2023-02-18T19:34:27.800Z,45.07
2023-02-18T19:36:58.785Z,45.12
2023-02-18T19:39:30.439Z,45.09
2023-02-18T19:42:01.754Z,44.95
2023-02-18T19:44:35.038Z,44.68
2023-02-18T19:47:03.062Z,44.45
2023-02-18T19:49:30.674Z,44.74
2023-02-18T19:52:04.160Z,44.54
2023-02-18T19:54:34.323Z,45.43
2023-02-18T19:57:05.216Z,44.56
2023-02-18T19:59:32.960Z,44.81
2023-02-18T20:02:00.864Z,44.55
2023-02-18T20:04:28.711Z,44.69
2023-02-18T20:06:56.919Z,44.88
2023-02-18T20:09:24.558Z,44.88
2023-02-18T20:11:52.949Z,44.84
2023-02-18T20:14:21.453Z,44.81
2023-02-18T20:16:49.963Z,45.12
2023-02-18T20:19:17.894Z,45.34
2023-02-18T20:21:45.850Z,45.33
2023-02-18T20:24:13.819Z,44.96
2023-02-18T20:26:41.923Z,45.30
2023-02-18T20:29:09.538Z,45.01
2023-02-18T20:31:37.908Z,45.01
2023-02-18T20:34:05.666Z,45.02
2023-02-18T20:36:33.673Z,45.11
2023-02-18T20:39:15.372Z,45.50
2023-02-18T20:41:45.955Z,45.34
2023-02-18T20:44:16.006Z,45.09
2023-02-18T20:46:45.254Z,45.16
2023-02-18T20:49:16.454Z,45.16
2023-02-18T20:51:44.826Z,45.07
2023-02-18T20:54:16.132Z,45.15
2023-02-18T20:56:44.333Z,44.90
2023-02-18T20:59:14.293Z,44.89
2023-02-18T21:01:43.916Z,45.38
2023-02-18T21:04:13.641Z,45.47
2023-02-18T21:06:41.814Z,45.50
2023-02-18T21:09:10.058Z,45.78
2023-02-18T21:11:37.926Z,45.45
2023-02-18T21:14:05.628Z,45.58
2023-02-18T21:16:38.661Z,45.74
2023-02-18T21:19:09.418Z,45.98
2023-02-18T21:21:37.292Z,46.07
2023-02-18T21:24:05.312Z,46.33
2023-02-18T21:26:33.477Z,46.09
2023-02-18T21:29:05.692Z,46.39
2023-02-18T21:31:37.783Z,47.20
2023-02-18T21:34:07.969Z,47.25
2023-02-18T21:36:35.741Z,47.43
2023-02-18T21:39:07.433Z,47.88
2023-02-18T21:41:38.532Z,48.50
2023-02-18T21:44:07.882Z,48.45
2023-02-18T21:46:36.794Z,47.73
2023-02-18T21:49:06.365Z,47.75
2023-02-18T21:52:05.217Z,47.51
2023-02-18T21:54:44.580Z,47.33
2023-02-18T21:57:19.001Z,47.86
2023-02-18T21:59:46.628Z,48.07
2023-02-18T22:02:22.817Z,47.83
2023-02-18T22:04:54.041Z,48.01
2023-02-18T22:07:25.499Z,47.64
2023-02-18T22:09:54.092Z,47.79
2023-02-18T22:12:23.681Z,47.83
2023-02-18T22:14:51.199Z,47.80
2023-02-18T22:17:21.615Z,47.89
2023-02-18T22:19:49.375Z,47.70
2023-02-18T22:22:17.796Z,47.69
2023-02-18T22:24:45.229Z,47.83
2023-02-18T22:27:13.107Z,47.98
2023-02-18T22:29:40.606Z,48.14
2023-02-18T22:32:08.437Z,49.11
2023-02-18T22:34:36.151Z,49.28
2023-02-18T22:37:04.078Z,49.67
2023-02-18T22:39:32.022Z,50.13
2023-02-18T22:41:59.741Z,50.80
2023-02-18T22:44:27.645Z,50.87
2023-02-18T22:46:56.976Z,51.06
2023-02-18T22:49:25.550Z,50.96
2023-02-18T22:51:54.861Z,50.66
2023-02-18T22:54:22.629Z,50.76
2023-02-18T22:56:53.058Z,51.24
2023-02-18T22:59:20.622Z,51.25
2023-02-18T23:01:49.712Z,51.49
2023-02-18T23:04:19.462Z,51.56
2023-02-18T23:06:48.682Z,51.57
2023-02-18T23:09:22.990Z,51.85
2023-02-18T23:11:53.477Z,52.20
2023-02-18T23:14:21.923Z,52.18
2023-02-18T23:17:18.701Z,51.82
2023-02-18T23:19:54.096Z,51.96
2023-02-18T23:22:36.044Z,52.22
2023-02-18T23:25:04.337Z,52.11
2023-02-18T23:27:32.161Z,52.18
2023-02-18T23:29:59.783Z,52.52
2023-02-18T23:32:28.971Z,53.01
2023-02-18T23:34:56.434Z,52.81
2023-02-18T23:37:44.382Z,53.19
2023-02-18T23:40:13.945Z,53.69
2023-02-18T23:42:42.275Z,53.75
2023-02-18T23:45:09.935Z,53.88
2023-02-18T23:47:37.777Z,54.07
2023-02-18T23:50:05.580Z,54.46
2023-02-18T23:52:33.395Z,54.17
2023-02-18T23:55:01.204Z,54.46
2023-02-18T23:57:32.855Z,54.26
